Welcome to Northern Hawkes Bay. New Zealand.
PWS Header
      nz Flag



Hit Counter


W3C Valid W3C Valid logo


    Wairoa

Select any of the Stations below to visit their websites.










Historic Data from Weather Underground
Select the location of interest below. Wairoa is the default. Please have patience, this Data is slow to load in.
Northern Hawkes Bay Historical Data
Daily Summary for May 14, 2017 Units:  English    Metric   Both
« Previous Day
Next Day »
Daily Weekly Monthly Yearly Custom
  High: Low: Average:
Temperature: 60.3 °F 42.1 °F 50.9 °F
Dew Point: 46.6 °F 41.5 °F 43.5 °F
Humidity: 99% 53% 77%
Wind Speed: 17.4mph 0mph 2.7mph
Wind Gust: 25.1mph - -
Wind- - West
Pressure: 30.3 in 30.2 in -
Precipitation: 0 in    
Historical Graphs
 
 
Tabular Data for May 14, 2017
Time Temperature Dew Point Pressure Wind Wind Speed Wind Gust Humidity Rainfall Rate (Hourly) solar
00:00 51.6 °F 46.6 °F 30.2 in SW 9.2 mph 19.7 mph 83% 0 in 0 W/m2
00:06 51.6 °F 46.6 °F 30.2 in WSW 11.4 mph 19.7 mph 83% 0 in 0 W/m2
00:11 51.6 °F 46.2 °F 30.2 in WSW 7.6 mph 19 mph 82% 0 in 0 W/m2
00:16 51.6 °F 46.6 °F 30.2 in SW 13 mph 23.5 mph 83% 0 in 0 W/m2
00:21 51.6 °F 46.2 °F 30.2 in SW 9.2 mph 23.5 mph 82% 0 in 0 W/m2
00:26 51.6 °F 46.6 °F 30.2 in WSW 12.1 mph 22.1 mph 83% 0 in 0 W/m2
00:31 51.6 °F 46.6 °F 30.2 in West 17.4 mph 21.3 mph 83% 0 in 0 W/m2
00:36 51.4 °F 46.6 °F 30.2 in WSW 9.2 mph 21.3 mph 83% 0 in 0 W/m2
00:41 51.4 °F 46.6 °F 30.2 in WSW 13.6 mph 21.3 mph 83% 0 in 0 W/m2
00:46 51.4 °F 46.6 °F 30.2 in WSW 9.2 mph 21.3 mph 83% 0 in 0 W/m2
00:51 51.3 °F 46.2 °F 30.2 in SW 14.5 mph 22.1 mph 83% 0 in 0 W/m2
00:56 51.3 °F 46.2 °F 30.2 in WSW 9.8 mph 22.1 mph 83% 0 in 0 W/m2
01:01 51.3 °F 46.2 °F 30.2 in WSW 9.2 mph 19 mph 83% 0 in 0 W/m2
01:06 51.3 °F 46.2 °F 30.2 in WSW 8.3 mph 19.7 mph 83% 0 in 0 W/m2
01:11 51.3 °F 46.2 °F 30.2 in WSW 15.2 mph 25.1 mph 83% 0 in 0 W/m2
01:16 51.4 °F 46.6 °F 30.2 in WSW 13 mph 25.1 mph 83% 0 in 0 W/m2
01:21 51.4 °F 46.6 °F 30.2 in WSW 8.3 mph 18.3 mph 83% 0 in 0 W/m2
01:26 51.4 °F 46 °F 30.2 in WSW 9.2 mph 18.3 mph 82% 0 in 0 W/m2
01:31 51.6 °F 46.2 °F 30.2 in SW 12.1 mph 18.3 mph 82% 0 in 0 W/m2
01:36 51.6 °F 46.2 °F 30.2 in WSW 14.5 mph 19 mph 82% 0 in 0 W/m2
01:41 51.8 °F 45.9 °F 30.2 in WSW 10.7 mph 19 mph 80% 0 in 0 W/m2
01:46 51.8 °F 45.5 °F 30.2 in SW 11.4 mph 19 mph 79% 0 in 0 W/m2
01:51 51.8 °F 45.9 °F 30.2 in SW 10.7 mph 20.6 mph 80% 0 in 0 W/m2
01:56 51.6 °F 46.6 °F 30.2 in WSW 9.2 mph 20.6 mph 83% 0 in 0 W/m2
02:01 51.3 °F 46.2 °F 30.2 in WSW 11.4 mph 17.4 mph 83% 0 in 0 W/m2
02:06 51.1 °F 46 °F 30.2 in SW 6.9 mph 17.4 mph 83% 0 in 0 W/m2
02:11 50.9 °F 45.9 °F 30.2 in WSW 3.8 mph 17.4 mph 83% 0 in 0 W/m2
02:16 51.1 °F 46 °F 30.2 in WSW 8.3 mph 16.8 mph 83% 0 in 0 W/m2
02:21 51.1 °F 46 °F 30.2 in WSW 6 mph 16.8 mph 83% 0 in 0 W/m2
02:26 50.9 °F 45.9 °F 30.2 in WSW 3.8 mph 12.1 mph 83% 0 in 0 W/m2
02:31 50.9 °F 45.9 °F 30.2 in West 1.6 mph 11.4 mph 83% 0 in 0 W/m2
02:36 51.1 °F 45.9 °F 30.2 in West 7.6 mph 13.6 mph 82% 0 in 0 W/m2
02:40 51.4 °F 45.5 °F 30.2 in WSW 6.9 mph 15.9 mph 80% 0 in 0 W/m2
02:46 51.6 °F 45 °F 30.2 in WSW 15.2 mph 19 mph 78% 0 in 0 W/m2
02:51 51.8 °F 44.4 °F 30.2 in WSW 9.2 mph 19.7 mph 76% 0 in 0 W/m2
02:56 51.8 °F 44.4 °F 30.2 in WSW 8.3 mph 19.7 mph 76% 0 in 0 W/m2
03:01 51.8 °F 44.4 °F 30.2 in WSW 9.8 mph 18.3 mph 76% 0 in 0 W/m2
03:06 51.8 °F 44.4 °F 30.2 in WSW 5.4 mph 18.3 mph 76% 0 in 0 W/m2
03:12 51.6 °F 44.8 °F 30.2 in West 3.1 mph 15.9 mph 77% 0 in 0 W/m2
03:17 51.6 °F 44.8 °F 30.2 in WSW 9.2 mph 14.5 mph 77% 0 in 0 W/m2
03:21 51.6 °F 44.8 °F 30.2 in WSW 6.9 mph 14.5 mph 77% 0 in 0 W/m2
03:27 51.4 °F 44.8 °F 30.2 in WSW 10.7 mph 14.5 mph 78% 0 in 0 W/m2
03:32 51.3 °F 44.6 °F 30.2 in WSW 3.8 mph 14.5 mph 78% 0 in 0 W/m2
03:37 51.1 °F 45.5 °F 30.2 in Calm   14.5 mph 81% 0 in 0 W/m2
03:42 51.1 °F 45.5 °F 30.2 in WSW 4.5 mph 8.3 mph 81% 0 in 0 W/m2
03:47 50.9 °F 45.3 °F 30.2 in Calm   8.3 mph 81% 0 in 0 W/m2
03:52 50.7 °F 45.1 °F 30.2 in Calm   6.9 mph 81% 0 in 0 W/m2
03:57 50.4 °F 44.4 °F 30.2 in Calm   6 mph 80% 0 in 0 W/m2
04:02 50.2 °F 43.9 °F 30.2 in Calm   6 mph 79% 0 in 0 W/m2
04:06 50.2 °F 43.9 °F 30.2 in Calm   3.8 mph 79% 0 in 0 W/m2
04:12 50 °F 43.9 °F 30.2 in Calm   3.8 mph 79% 0 in 0 W/m2
04:13 50 °F 43.9 °F 30.2 in Calm   3.8 mph 79% 0 in 0 W/m2
04:18 49.8 °F 43.9 °F 30.2 in Calm   1.6 mph 80% 0 in 0 W/m2
04:23 49.6 °F 43.3 °F 30.2 in Calm   3.1 mph 79% 0 in 0 W/m2
04:28 49.6 °F 43.3 °F 30.2 in Calm   3.1 mph 79% 0 in 0 W/m2
04:33 49.6 °F 43.2 °F 30.2 in Calm   6 mph 78% 0 in 0 W/m2
04:38 49.8 °F 43 °F 30.2 in WNW 0.7 mph 6 mph 77% 0 in 0 W/m2
04:43 49.8 °F 43 °F 30.2 in Calm   3.8 mph 77% 0 in 0 W/m2
04:47 49.6 °F 42.6 °F 30.2 in Calm   3.8 mph 77% 0 in 0 W/m2
04:52 49.5 °F 42.6 °F 30.2 in Calm   1.6 mph 77% 0 in 0 W/m2
04:58 49.5 °F 42.6 °F 30.2 in Calm   4.5 mph 77% 0 in 0 W/m2
05:02 49.5 °F 42.6 °F 30.2 in Calm   5.4 mph 77% 0 in 0 W/m2
05:08 49.5 °F 42.6 °F 30.2 in Calm   5.4 mph 77% 0 in 0 W/m2
05:13 49.5 °F 43 °F 30.2 in Calm   4.5 mph 78% 0 in 0 W/m2
05:18 49.6 °F 43.2 °F 30.2 in Calm   3.8 mph 78% 0 in 0 W/m2
05:23 49.5 °F 42.6 °F 30.2 in Calm   4.5 mph 77% 0 in 0 W/m2
05:28 49.5 °F 42.6 °F 30.2 in Calm   5.4 mph 77% 0 in 0 W/m2
05:33 49.5 °F 42.6 °F 30.2 in WSW 0.7 mph 5.4 mph 77% 0 in 0 W/m2
05:37 49.5 °F 42.6 °F 30.2 in Calm   4.5 mph 77% 0 in 0 W/m2
05:42 49.5 °F 42.6 °F 30.2 in Calm   3.8 mph 77% 0 in 0 W/m2
05:48 49.5 °F 42.6 °F 30.2 in Calm   3.8 mph 77% 0 in 0 W/m2
05:53 49.6 °F 42.6 °F 30.2 in West 3.1 mph 6.9 mph 77% 0 in 0 W/m2
05:57 49.8 °F 42.6 °F 30.2 in Calm   6.9 mph 76% 0 in 0 W/m2
06:02 49.8 °F 42.6 °F 30.2 in Calm   6.9 mph 76% 0 in 0 W/m2
06:08 49.5 °F 42.3 °F 30.2 in Calm   2.2 mph 76% 0 in 0 W/m2
06:13 49.1 °F 42.3 °F 30.2 in Calm     77% 0 in 0 W/m2
06:17 48.9 °F 42.1 °F 30.2 in Calm     77% 0 in 0 W/m2
06:23 48.7 °F 41.9 °F 30.2 in Calm     77% 0 in 0 W/m2
06:27 48.4 °F 41.7 °F 30.2 in Calm     78% 0 in 0 W/m2
06:32 48.2 °F 42.1 °F 30.2 in Calm     79% 0 in 0 W/m2
06:38 48 °F 42.4 °F 30.2 in Calm     81% 0 in 0 W/m2
06:43 48 °F 42.4 °F 30.2 in Calm     81% 0 in 0 W/m2
06:47 48 °F 42.4 °F 30.2 in Calm     81% 0 in 0 W/m2
06:52 47.8 °F 42.6 °F 30.2 in Calm     82% 0 in 0 W/m2
06:58 47.8 °F 42.6 °F 30.2 in Calm     82% 0 in 0 W/m2
07:00 47.8 °F 42.6 °F 30.2 in Calm     82% 0 in 0 W/m2
07:05 47.7 °F 42.4 °F 30.2 in Calm     82% 0 in 2 W/m2
07:10 47.7 °F 42.4 °F 30.2 in Calm     82% 0 in 4 W/m2
07:16 47.7 °F 42.8 °F 30.2 in Calm     83% 0 in 6 W/m2
07:21 47.5 °F 42.6 °F 30.2 in Calm     83% 0 in 8 W/m2
07:25 47.3 °F 42.4 °F 30.2 in Calm   1.6 mph 83% 0 in 12 W/m2
07:30 47.1 °F 42.3 °F 30.2 in Calm   3.1 mph 83% 0 in 15 W/m2
07:36 46.9 °F 42.1 °F 30.2 in Calm   3.1 mph 83% 0 in 18 W/m2
07:41 47.1 °F 42.3 °F 30.2 in Calm   3.1 mph 83% 0 in 21 W/m2
07:45 47.3 °F 42.4 °F 30.2 in Calm   3.1 mph 83% 0 in 26 W/m2
07:50 47.3 °F 42.4 °F 30.2 in Calm   3.8 mph 83% 0 in 33 W/m2
07:55 47.5 °F 42.6 °F 30.2 in NW 2.2 mph 3.8 mph 83% 0 in 42 W/m2
08:00 47.8 °F 42.6 °F 30.2 in NW 0.7 mph 5.4 mph 82% 0 in 50 W/m2
08:06 48.2 °F 42.3 °F 30.2 in Calm   5.4 mph 80% 0 in 51 W/m2
08:11 48.4 °F 42.3 °F 30.2 in NNW 2.2 mph 4.5 mph 79% 0 in 56 W/m2
08:15 48.6 °F 42.1 °F 30.2 in NNW 0.7 mph 5.4 mph 78% 0 in 66 W/m2
08:20 49.5 °F 43.2 °F 30.2 in Calm   5.4 mph 79% 0 in 180 W/m2
08:23 50 °F 43.2 °F 30.2 in North 0.7 mph 5.4 mph 77% 0 in 190 W/m2
08:27 51.3 °F 43.5 °F 30.2 in North 1.6 mph 4.5 mph 75% 0 in 196 W/m2
08:32 51.4 °F 43.2 °F 30.2 in North 2.2 mph 5.4 mph 73% 0 in 188 W/m2
08:38 51.4 °F 43.2 °F 30.2 in NNW 0.7 mph 5.4 mph 73% 0 in 101 W/m2
08:43 50.9 °F 42.6 °F 30.2 in Calm   6 mph 73% 0 in 106 W/m2
08:47 50.7 °F 42.4 °F 30.2 in Calm   6 mph 73% 0 in 93 W/m2
08:52 51.3 °F 43.3 °F 30.3 in Calm   1.6 mph 74% 0 in 254 W/m2
08:57 52.3 °F 43.5 °F 30.3 in Calm   1.6 mph 72% 0 in 269 W/m2
09:02 53.1 °F 44.2 °F 30.3 in Calm   1.6 mph 72% 0 in 282 W/m2
09:07 52.9 °F 43 °F 30.3 in NW 1.6 mph 6 mph 69% 0 in 292 W/m2
09:13 53.2 °F 43.7 °F 30.3 in NW 3.1 mph 6 mph 70% 0 in 288 W/m2
09:17 53.4 °F 43.5 °F 30.3 in NW 0.7 mph 5.4 mph 69% 0 in 240 W/m2
09:22 53.2 °F 43.3 °F 30.3 in Calm   5.4 mph 69% 0 in 147 W/m2
09:27 52.7 °F 43.2 °F 30.3 in Calm   4.5 mph 70% 0 in 160 W/m2
09:32 52.7 °F 43.2 °F 30.3 in Calm   2.2 mph 70% 0 in 155 W/m2
09:37 52.9 °F 43.3 °F 30.3 in Calm   1.6 mph 70% 0 in 178 W/m2
09:42 53.2 °F 43.3 °F 30.3 in Calm   3.8 mph 69% 0 in 180 W/m2
09:47 53.8 °F 44.2 °F 30.3 in Calm   3.8 mph 70% 0 in 191 W/m2
09:52 54.7 °F 44.2 °F 30.3 in Calm   3.1 mph 68% 0 in 193 W/m2
09:58 54.9 °F 44.1 °F 30.3 in Calm     67% 0 in 182 W/m2
10:02 55.2 °F 44.1 °F 30.3 in Calm     66% 0 in 190 W/m2
10:07 55.4 °F 44.6 °F 30.3 in West 0.7 mph 3.8 mph 67% 0 in 181 W/m2
10:12 55.2 °F 44.1 °F 30.3 in Calm   3.8 mph 66% 0 in 183 W/m2
10:17 54.7 °F 43.2 °F 30.3 in Calm   3.8 mph 65% 0 in 189 W/m2
10:22 54.5 °F 43.3 °F 30.3 in Calm     66% 0 in 191 W/m2
10:28 55 °F 43.9 °F 30.3 in Calm     66% 0 in 182 W/m2
10:32 54.9 °F 43.7 °F 30.3 in Calm     66% 0 in 189 W/m2
10:37 54.7 °F 43.5 °F 30.3 in Calm     66% 0 in 186 W/m2
10:42 54.5 °F 43.3 °F 30.3 in SW 5.4 mph 10.7 mph 66% 0 in 186 W/m2
10:47 54.3 °F 42.8 °F 30.3 in Calm   10.7 mph 65% 0 in 179 W/m2
10:52 54.3 °F 43.2 °F 30.3 in Calm   8.3 mph 66% 0 in 137 W/m2
10:57 54.3 °F 42.8 °F 30.3 in Calm   6.9 mph 65% 0 in 159 W/m2
11:02 54.5 °F 43 °F 30.3 in West 2.2 mph 7.6 mph 65% 0 in 167 W/m2
11:07 54.5 °F 42.6 °F 30.3 in Calm   9.2 mph 64% 0 in 143 W/m2
11:12 55.2 °F 43.3 °F 30.3 in WNW 0.7 mph 9.2 mph 64% 0 in 211 W/m2
11:17 55.2 °F 43 °F 30.3 in WSW 0.7 mph 9.8 mph 63% 0 in 236 W/m2
11:22 55.8 °F 43 °F 30.3 in WSW 3.8 mph 11.4 mph 62% 0 in 378 W/m2
11:27 56.3 °F 43 °F 30.3 in SW 6 mph 14.5 mph 61% 0 in 378 W/m2
11:32 56.7 °F 43.3 °F 30.3 in SW 3.8 mph 15.2 mph 61% 0 in 375 W/m2
11:37 56.7 °F 43 °F 30.3 in West 2.2 mph 15.2 mph 60% 0 in 389 W/m2
11:42 57.2 °F 43.9 °F 30.3 in Calm   12.1 mph 61% 0 in 379 W/m2
11:47 57.9 °F 43.7 °F 30.3 in WSW 8.3 mph 13 mph 59% 0 in 383 W/m2
11:52 57.4 °F 43.2 °F 30.3 in WSW 4.5 mph 13 mph 59% 0 in 374 W/m2
11:57 57.6 °F 43.9 °F 30.3 in WSW 6.9 mph 13 mph 60% 0 in 368 W/m2
12:02 57.4 °F 42.3 °F 30.3 in SW 9.2 mph 13.6 mph 57% 0 in 358 W/m2
12:08 57.2 °F 43.5 °F 30.3 in WSW 5.4 mph 14.5 mph 60% 0 in 349 W/m2
12:13 57.6 °F 43 °F 30.3 in WSW 8.3 mph 15.2 mph 58% 0 in 341 W/m2
12:18 57.2 °F 42.6 °F 30.3 in SW 8.3 mph 15.2 mph 58% 0 in 330 W/m2
12:23 57.7 °F 42.6 °F 30.3 in WSW 13 mph 17.4 mph 57% 0 in 316 W/m2
12:28 57.4 °F 42.3 °F 30.3 in SW 6.9 mph 17.4 mph 57% 0 in 298 W/m2
12:33 58.3 °F 43.2 °F 30.3 in SW 9.8 mph 17.4 mph 57% 0 in 275 W/m2
12:38 57.6 °F 42.4 °F 30.3 in WSW 7.6 mph 13.6 mph 57% 0 in 244 W/m2
12:43 57.9 °F 42.8 °F 30.3 in WSW 4.5 mph 13.6 mph 57% 0 in 222 W/m2
12:48 57.6 °F 42.1 °F 30.3 in SW 9.2 mph 13.6 mph 56% 0 in 201 W/m2
12:53 57.7 °F 43.2 °F 30.3 in WSW 6 mph 14.5 mph 58% 0 in 167 W/m2
12:58 57.9 °F 43.7 °F 30.3 in WSW 6.9 mph 14.5 mph 59% 0 in 136 W/m2
13:03 57.7 °F 42.6 °F 30.2 in SW 6.9 mph 14.5 mph 57% 0 in 120 W/m2
13:08 57.9 °F 42.3 °F 30.3 in SW 6 mph 14.5 mph 56% 0 in 110 W/m2
13:13 58.1 °F 43.3 °F 30.2 in SW 7.6 mph 13 mph 58% 0 in 107 W/m2
13:18 58.3 °F 42.6 °F 30.2 in SW 3.8 mph 12.1 mph 56% 0 in 98 W/m2
13:23 58.3 °F 42.3 °F 30.3 in WSW 2.2 mph 12.1 mph 55% 0 in 78 W/m2
13:28 58.5 °F 41.9 °F 30.2 in WSW 7.6 mph 13.6 mph 54% 0 in 65 W/m2
13:33 57.9 °F 41.9 °F 30.2 in SW 6 mph 13.6 mph 55% 0 in 63 W/m2
13:38 57.7 °F 41.7 °F 30.2 in SW 7.6 mph 12.1 mph 55% 0 in 60 W/m2
13:43 58.3 °F 42.3 °F 30.2 in SW 3.8 mph 12.1 mph 55% 0 in 59 W/m2
13:48 58.1 °F 41.5 °F 30.2 in SW 4.5 mph 12.1 mph 54% 0 in 60 W/m2
13:53 58.6 °F 42.4 °F 30.2 in SW 3.1 mph 9.8 mph 55% 0 in 61 W/m2
13:58 58.5 °F 42.4 °F 30.2 in SSW 5.4 mph 9.8 mph 55% 0 in 63 W/m2
14:03 59.4 °F 43.2 °F 30.2 in SW 4.5 mph 9.2 mph 55% 0 in 64 W/m2
14:08 58.6 °F 41.5 °F 30.2 in SW 4.5 mph 10.7 mph 53% 0 in 68 W/m2
14:13 59.2 °F 42.1 °F 30.2 in SW 6 mph 10.7 mph 53% 0 in 69 W/m2
14:19 59.4 °F 42.6 °F 30.2 in SW 4.5 mph 10.7 mph 54% 0 in 72 W/m2
14:25 58.6 °F 42.1 °F 30.2 in SW 3.1 mph 13 mph 54% 0 in 90 W/m2
14:30 58.6 °F 42.4 °F 30.2 in SW 6.9 mph 13 mph 55% 0 in 132 W/m2
14:35 58.3 °F 42.6 °F 30.2 in SW 6.9 mph 11.4 mph 56% 0 in 183 W/m2
14:40 58.8 °F 43.2 °F 30.2 in SW 8.3 mph 11.4 mph 56% 0 in 190 W/m2
14:45 58.3 °F 42.3 °F 30.2 in SW 6 mph 11.4 mph 55% 0 in 165 W/m2
14:50 58.6 °F 43.9 °F 30.2 in SW 4.5 mph 11.4 mph 58% 0 in 192 W/m2
14:55 59.4 °F 43.7 °F 30.2 in SW 1.6 mph 9.8 mph 56% 0 in 209 W/m2
15:00 59.4 °F 42.6 °F 30.2 in SW 3.8 mph 9.2 mph 54% 0 in 204 W/m2
15:05 59.2 °F 43 °F 30.2 in SW 3.1 mph 9.2 mph 55% 0 in 199 W/m2
15:10 59.5 °F 43.3 °F 30.2 in SW 2.2 mph 7.6 mph 55% 0 in 193 W/m2
15:15 59.4 °F 42.6 °F 30.2 in WSW 2.2 mph 6.9 mph 54% 0 in 185 W/m2
15:20 59.2 °F 43 °F 30.2 in WSW 1.6 mph 6.9 mph 55% 0 in 176 W/m2
15:25 59.2 °F 43 °F 30.2 in Calm   6.9 mph 55% 0 in 163 W/m2
15:30 59.5 °F 43.9 °F 30.2 in WSW 2.2 mph 6.9 mph 56% 0 in 153 W/m2
15:35 59.2 °F 43 °F 30.2 in Calm   4.5 mph 55% 0 in 143 W/m2
15:40 58.8 °F 44.1 °F 30.2 in West 1.6 mph 5.4 mph 58% 0 in 129 W/m2
15:45 58.8 °F 44.1 °F 30.2 in West 3.1 mph 5.4 mph 58% 0 in 117 W/m2
15:50 59 °F 44.2 °F 30.2 in West 0.7 mph 5.4 mph 58% 0 in 102 W/m2
15:55 59.2 °F 44.4 °F 30.2 in Calm   5.4 mph 58% 0 in 88 W/m2
16:00 59 °F 44.2 °F 30.2 in Calm   3.8 mph 58% 0 in 68 W/m2
16:05 59.5 °F 44.8 °F 30.2 in Calm   2.2 mph 58% 0 in 58 W/m2
16:22 59.2 °F 45 °F 30.3 in Calm     59% 0 in 39 W/m2
16:27 59 °F 45.7 °F 30.3 in Calm   3.1 mph 61% 0 in 39 W/m2
16:32 59.7 °F 45.9 °F 30.3 in Calm   3.1 mph 60% 0 in 40 W/m2
16:37 60.1 °F 46.2 °F 30.3 in Calm     60% 0 in 36 W/m2
16:42 60.3 °F 45.9 °F 30.3 in Calm     59% 0 in 30 W/m2
16:47 59.9 °F 45.7 °F 30.3 in Calm     59% 0 in 19 W/m2
16:52 57.9 °F 44.6 °F 30.3 in Calm     61% 0 in 14 W/m2
16:57 56.1 °F 44.4 °F 30.3 in Calm     65% 0 in 9 W/m2
17:02 54.5 °F 43.3 °F 30.3 in Calm     66% 0 in 6 W/m2
17:07 53.2 °F 43.3 °F 30.3 in Calm     69% 0 in 3 W/m2
17:12 52.5 °F 43.3 °F 30.3 in Calm     71% 0 in 1 W/m2
17:17 52 °F 43.2 °F 30.3 in Calm     72% 0 in 0 W/m2
17:22 51.6 °F 43.5 °F 30.3 in Calm     74% 0 in 0 W/m2
17:27 51.1 °F 43.9 °F 30.3 in Calm     76% 0 in 0 W/m2
17:32 50.5 °F 43.9 °F 30.3 in Calm     78% 0 in 0 W/m2
17:37 50.2 °F 43.9 °F 30.3 in Calm     79% 0 in 0 W/m2
17:42 49.8 °F 44.2 °F 30.3 in Calm     81% 0 in 0 W/m2
17:47 49.3 °F 44.2 °F 30.3 in Calm     83% 0 in 0 W/m2
17:52 48.9 °F 44.2 °F 30.3 in Calm     84% 0 in 0 W/m2
17:57 48.6 °F 44.2 °F 30.3 in Calm     85% 0 in 0 W/m2
18:03 48.4 °F 44.1 °F 30.3 in Calm     85% 0 in 0 W/m2
18:08 48 °F 44.2 °F 30.3 in Calm     87% 0 in 0 W/m2
18:13 47.7 °F 44.1 °F 30.3 in Calm     87% 0 in 0 W/m2
18:18 47.1 °F 43.5 °F 30.3 in Calm     87% 0 in 0 W/m2
18:23 46.9 °F 43.5 °F 30.3 in Calm     88% 0 in 0 W/m2
18:28 46.8 °F 43.3 °F 30.3 in Calm     88% 0 in 0 W/m2
18:33 46.6 °F 43.5 °F 30.3 in Calm     89% 0 in 0 W/m2
18:38 46.4 °F 43.5 °F 30.3 in Calm     90% 0 in 0 W/m2
18:43 46.2 °F 43.7 °F 30.3 in Calm     91% 0 in 0 W/m2
18:48 45.9 °F 43.7 °F 30.3 in Calm     92% 0 in 0 W/m2
18:53 45.7 °F 43.5 °F 30.3 in Calm     92% 0 in 0 W/m2
18:58 45.5 °F 43.3 °F 30.3 in Calm     92% 0 in 0 W/m2
19:03 45.3 °F 43.3 °F 30.3 in Calm   1.6 mph 93% 0 in 0 W/m2
19:08 45.1 °F 43.2 °F 30.3 in Calm   1.6 mph 93% 0 in 0 W/m2
19:13 45.1 °F 43.2 °F 30.3 in Calm   1.6 mph 93% 0 in 0 W/m2
19:18 45 °F 43.3 °F 30.3 in Calm   0.7 mph 94% 0 in 0 W/m2
19:23 45 °F 43.3 °F 30.3 in Calm     94% 0 in 0 W/m2
19:28 45 °F 43.3 °F 30.3 in Calm     94% 0 in 0 W/m2
19:33 45 °F 43.5 °F 30.3 in Calm     95% 0 in 0 W/m2
19:38 45.1 °F 43.9 °F 30.3 in Calm     95% 0 in 0 W/m2
19:43 45.1 °F 43.9 °F 30.3 in Calm     95% 0 in 0 W/m2
19:48 45.1 °F 43.9 °F 30.3 in Calm     95% 0 in 0 W/m2
19:53 45 °F 43.5 °F 30.3 in Calm     95% 0 in 0 W/m2
19:58 45 °F 43.5 °F 30.3 in Calm     95% 0 in 0 W/m2
20:03 45 °F 43.5 °F 30.3 in Calm     95% 0 in 0 W/m2
20:08 44.8 °F 43.3 °F 30.3 in Calm     95% 0 in 0 W/m2
20:13 44.6 °F 43.3 °F 30.3 in Calm     95% 0 in 0 W/m2
20:18 44.4 °F 43.3 °F 30.3 in Calm     96% 0 in 0 W/m2
20:23 44.4 °F 43.3 °F 30.3 in Calm     96% 0 in 0 W/m2
20:28 44.2 °F 43.2 °F 30.3 in Calm     96% 0 in 0 W/m2
20:33 44.2 °F 43.2 °F 30.3 in Calm     96% 0 in 0 W/m2
20:38 44.1 °F 43 °F 30.3 in Calm     96% 0 in 0 W/m2
20:43 44.1 °F 43.3 °F 30.3 in NNW 2.2 mph 4.5 mph 97% 0 in 0 W/m2
20:48 44.1 °F 43.3 °F 30.3 in NW 1.6 mph 4.5 mph 97% 0 in 0 W/m2
20:53 44.2 °F 43.3 °F 30.3 in NW 1.6 mph 4.5 mph 97% 0 in 0 W/m2
20:58 44.4 °F 43.5 °F 30.3 in NNW 1.6 mph 5.4 mph 97% 0 in 0 W/m2
21:03 44.2 °F 43.7 °F 30.3 in NNW 3.8 mph 5.4 mph 98% 0 in 0 W/m2
21:08 44.2 °F 43.3 °F 30.3 in NNW 2.2 mph 5.4 mph 97% 0 in 0 W/m2
21:13 44.2 °F 43.3 °F 30.3 in NNW 3.1 mph 5.4 mph 97% 0 in 0 W/m2
21:18 44.2 °F 43.3 °F 30.3 in NNW 3.1 mph 6 mph 97% 0 in 0 W/m2
21:23 44.1 °F 43.3 °F 30.3 in NNW 4.5 mph 6 mph 97% 0 in 0 W/m2
21:28 44.1 °F 43.3 °F 30.3 in Calm   6 mph 97% 0 in 0 W/m2
21:33 44.1 °F 43.3 °F 30.3 in NNW 3.8 mph 6 mph 97% 0 in 0 W/m2
21:38 44.1 °F 43.3 °F 30.3 in NNW 3.8 mph 7.6 mph 97% 0 in 0 W/m2
21:43 43.9 °F 43.3 °F 30.3 in NNW 3.1 mph 7.6 mph 98% 0 in 0 W/m2
21:48 43.9 °F 43.2 °F 30.3 in NNW 3.8 mph 7.6 mph 97% 0 in 0 W/m2
21:53 43.7 °F 43 °F 30.3 in NW 3.1 mph 5.4 mph 97% 0 in 0 W/m2
21:58 43.7 °F 43 °F 30.3 in NNW 2.2 mph 6.9 mph 97% 0 in 0 W/m2
22:03 43.5 °F 43 °F 30.3 in NNW 2.2 mph 6.9 mph 98% 0 in 0 W/m2
22:08 43.3 °F 42.8 °F 30.3 in NNW 3.1 mph 5.4 mph 98% 0 in 0 W/m2
22:13 43.2 °F 42.6 °F 30.3 in NNW 2.2 mph 5.4 mph 98% 0 in 0 W/m2
22:18 43.2 °F 42.6 °F 30.3 in NNW 3.1 mph 5.4 mph 98% 0 in 0 W/m2
22:23 43.3 °F 42.8 °F 30.3 in NNW 3.1 mph 6 mph 98% 0 in 0 W/m2
22:28 43.2 °F 42.6 °F 30.3 in NNW 2.2 mph 6 mph 98% 0 in 0 W/m2
22:33 43.2 °F 42.6 °F 30.3 in NNW 2.2 mph 4.5 mph 98% 0 in 0 W/m2
22:38 43.2 °F 42.6 °F 30.3 in NNW 2.2 mph 5.4 mph 98% 0 in 0 W/m2
22:43 43 °F 42.4 °F 30.3 in NNW 1.6 mph 5.4 mph 98% 0 in 0 W/m2
22:48 43 °F 42.4 °F 30.3 in NNW 1.6 mph 4.5 mph 98% 0 in 0 W/m2
22:53 42.8 °F 42.3 °F 30.3 in NW 0.7 mph 4.5 mph 98% 0 in 0 W/m2
22:58 42.6 °F 42.4 °F 30.3 in NW 1.6 mph 4.5 mph 99% 0 in 0 W/m2
23:03 42.6 °F 42.4 °F 30.3 in Calm   4.5 mph 99% 0 in 0 W/m2
23:08 42.6 °F 42.4 °F 30.3 in Calm   3.8 mph 99% 0 in 0 W/m2
23:15 42.6 °F 42.4 °F 30.3 in Calm     99% 0 in 0 W/m2
23:20 42.6 °F 42.4 °F 30.3 in Calm     99% 0 in 0 W/m2
23:25 42.4 °F 42.3 °F 30.3 in Calm     99% 0 in 0 W/m2
23:30 42.4 °F 42.3 °F 30.3 in Calm     99% 0 in 0 W/m2
23:35 42.4 °F 42.3 °F 30.3 in Calm     99% 0 in 0 W/m2
23:40 42.3 °F 42.1 °F 30.3 in Calm     99% 0 in 0 W/m2
23:45 42.1 °F 41.7 °F 30.3 in Calm     99% 0 in 0 W/m2
23:50 42.1 °F 41.7 °F 30.3 in Calm     99% 0 in 0 W/m2
23:55 42.1 °F 41.7 °F 30.3 in Calm     99% 0 in 0 W/m2
Northern Hawkes Bay. New Zealand Historic Data
Compliments of Weather Underground - 2.25 mb